Ryouei Maru — JL6703 — position and weather

sailwx.info

Track history (hours):
 
Tides and Currents Weather Stations Pressure Air Temp Water Temp Dewpoint Dewpoint Depression Visibility Wind Speed Wind Dir Waves Ship Positions

Ryouei Maru

Last reported at 2014-Jul-31 19:33 UTC. Time now 2014-Jul-31 19:46 UTC.
Position N 34°28' E 135°11'.

Length 95 m; draft 5 m.

Type: Cargo ship. MMSI: 431501749.

Date/timePositionNaut miles runAvg speedWind from/ knotsBaromVisibWave heightAir tempDewpointWater temp
2014-Jul-31 19:33N 34°28' E 135°11'1211.8
2014-Jul-31 18:33N 34°19' E 135°01'1211.7
2014-Jul-31 17:33N 34°07' E 134°59'182 9.9
2014-Jul-30 23:09N 34°33' E 138°37'4612.3
2014-Jul-30 19:26N 34°50' E 139°28'1112.8
2014-Jul-30 18:33N 34°50' E 139°42'1212.4
2014-Jul-30 17:34N 34°51' E 139°57'1211.6
2014-Jul-30 16:32N 34°57' E 140°09'23 9.8
2014-Jul-30 14:09N 35°12' E 140°32'  
2014-Jul-27 18:21N 36°04' E 140°59'1113.1
2014-Jul-27 17:31N 35°53' E 140°58'1312.7
2014-Jul-27 16:29N 35°40' E 140°56'1112.2
2014-Jul-27 15:33N 35°31' E 140°48'1212.1
2014-Jul-27 14:33N 35°21' E 140°40'1313.5
2014-Jul-27 13:33N 35°10' E 140°30'1716.6
2014-Jul-27 12:33N 34°59' E 140°15'1716.5
2014-Jul-27 11:33N 34°51' E 139°57'1514.3
2014-Jul-27 10:28N 34°43' E 139°41'23611.8
2014-Jul-26 14:25N 33°58' E 134°60'1012.1
2014-Jul-26 13:33N 34°09' E 134°59'1211.2
2014-Jul-26 12:30N 34°20' E 134°59'1010.8
2014-Jul-26 11:33N 34°28' E 135°08'1212.1
2014-Jul-26 10:33N 34°36' E 135°19'6 5.3
2014-Jul-26 09:31N 34°37' E 135°26'0 0.0
2014-Jul-26 08:25N 34°37' E 135°26'0 0.0
2014-Jul-26 07:19N 34°37' E 135°26'0 0.1
2014-Jul-26 06:31N 34°37' E 135°26'0 0.0
2014-Jul-26 05:31N 34°37' E 135°26'0 0.0
2014-Jul-26 04:31N 34°37' E 135°26'0 0.0
2014-Jul-26 03:31N 34°37' E 135°26'0 0.0
2014-Jul-26 02:31N 34°37' E 135°26'0 0.0
2014-Jul-26 01:31N 34°37' E 135°26'0 0.0
2014-Jul-26 00:31N 34°37' E 135°26'0 0.0
2014-Jul-25 23:28N 34°37' E 135°26'0 0.1
2014-Jul-25 22:33N 34°37' E 135°26'9 9.2
2014-Jul-25 21:33N 34°32' E 135°16'1312.6
2014-Jul-25 20:33N 34°23' E 135°05'1211.2
2014-Jul-25 19:31N 34°12' E 134°60'1312.9
2014-Jul-25 18:32N 33°60' E 135°00'22210.4
2014-Jul-24 21:07N 34°38' E 139°25'1010.8
2014-Jul-24 20:14N 34°43' E 139°35'911.7
2014-Jul-24 19:29N 34°46' E 139°45'1112.0
2014-Jul-24 18:31N 34°52' E 139°57'1110.9
2014-Jul-24 17:32N 34°57' E 140°09'1510.9
2014-Jul-24 16:09N 35°04' E 140°25'711.0
2014-Jul-24 15:33N 35°10' E 140°30'1612.8
2014-Jul-24 14:17N 35°23' E 140°42'3412.4
2014-Jul-24 11:33N 35°54' E 140°58'1612.9
2014-Jul-24 10:19N 36°10' E 140°57'2312.8
2014-Jul-24 08:32N 36°32' E 140°59'  
Track history (hours):
 
Tides and Currents Weather Stations Pressure Air Temp Water Temp Dewpoint Dewpoint Depression Visibility Wind Speed Wind Dir Waves Ship Positions

Ryouei Maru

Last reported at 2014-Jul-31 19:33 UTC. Time now 2014-Jul-31 19:46 UTC.
Position N 34°28' E 135°11'.

Length 95 m; draft 5 m.

Type: Cargo ship. MMSI: 431501749.

Date/timePositionNaut miles runAvg speedWind from/ knotsBaromVisibWave heightAir tempDewpointWater temp
2014-Jul-31 19:33N 34°28' E 135°11'1211.8
2014-Jul-31 18:33N 34°19' E 135°01'1211.7
2014-Jul-31 17:33N 34°07' E 134°59'182 9.9
2014-Jul-30 23:09N 34°33' E 138°37'4612.3
2014-Jul-30 19:26N 34°50' E 139°28'1112.8
2014-Jul-30 18:33N 34°50' E 139°42'1212.4
2014-Jul-30 17:34N 34°51' E 139°57'1211.6
2014-Jul-30 16:32N 34°57' E 140°09'23 9.8
2014-Jul-30 14:09N 35°12' E 140°32'  
2014-Jul-27 18:21N 36°04' E 140°59'1113.1
2014-Jul-27 17:31N 35°53' E 140°58'1312.7
2014-Jul-27 16:29N 35°40' E 140°56'1112.2
2014-Jul-27 15:33N 35°31' E 140°48'1212.1
2014-Jul-27 14:33N 35°21' E 140°40'1313.5
2014-Jul-27 13:33N 35°10' E 140°30'1716.6
2014-Jul-27 12:33N 34°59' E 140°15'1716.5
2014-Jul-27 11:33N 34°51' E 139°57'1514.3
2014-Jul-27 10:28N 34°43' E 139°41'23611.8
2014-Jul-26 14:25N 33°58' E 134°60'1012.1
2014-Jul-26 13:33N 34°09' E 134°59'1211.2
2014-Jul-26 12:30N 34°20' E 134°59'1010.8
2014-Jul-26 11:33N 34°28' E 135°08'1212.1
2014-Jul-26 10:33N 34°36' E 135°19'6 5.3
2014-Jul-26 09:31N 34°37' E 135°26'0 0.0
2014-Jul-26 08:25N 34°37' E 135°26'0 0.0
2014-Jul-26 07:19N 34°37' E 135°26'0 0.1
2014-Jul-26 06:31N 34°37' E 135°26'0 0.0
2014-Jul-26 05:31N 34°37' E 135°26'0 0.0
2014-Jul-26 04:31N 34°37' E 135°26'0 0.0
2014-Jul-26 03:31N 34°37' E 135°26'0 0.0
2014-Jul-26 02:31N 34°37' E 135°26'0 0.0
2014-Jul-26 01:31N 34°37' E 135°26'0 0.0
2014-Jul-26 00:31N 34°37' E 135°26'0 0.0
2014-Jul-25 23:28N 34°37' E 135°26'0 0.1
2014-Jul-25 22:33N 34°37' E 135°26'9 9.2
2014-Jul-25 21:33N 34°32' E 135°16'1312.6
2014-Jul-25 20:33N 34°23' E 135°05'1211.2
2014-Jul-25 19:31N 34°12' E 134°60'1312.9
2014-Jul-25 18:32N 33°60' E 135°00'22210.4
2014-Jul-24 21:07N 34°38' E 139°25'1010.8
2014-Jul-24 20:14N 34°43' E 139°35'911.7
2014-Jul-24 19:29N 34°46' E 139°45'1112.0
2014-Jul-24 18:31N 34°52' E 139°57'1110.9
2014-Jul-24 17:32N 34°57' E 140°09'1510.9
2014-Jul-24 16:09N 35°04' E 140°25'711.0
2014-Jul-24 15:33N 35°10' E 140°30'1612.8
2014-Jul-24 14:17N 35°23' E 140°42'3412.4
2014-Jul-24 11:33N 35°54' E 140°58'1612.9
2014-Jul-24 10:19N 36°10' E 140°57'2312.8
2014-Jul-24 08:32N 36°32' E 140°59'  

Dump ship's entire track history